createdAt,value
2018-09-09T00:04:08.061Z,11.40
2018-09-09T00:09:15.903Z,11.80
2018-09-09T00:14:19.563Z,12.25
2018-09-09T00:19:23.215Z,11.00
2018-09-09T00:24:26.986Z,12.80
2018-09-09T00:29:30.730Z,12.75
2018-09-09T00:34:34.661Z,13.00
2018-09-09T00:39:38.684Z,12.00
2018-09-09T00:44:42.377Z,12.75
2018-09-09T00:49:51.144Z,12.00
2018-09-09T00:54:54.897Z,11.50
2018-09-09T00:59:58.639Z,11.75
2018-09-09T01:05:06.313Z,12.00
2018-09-09T01:10:09.963Z,12.00
2018-09-09T01:15:13.602Z,12.50
2018-09-09T01:20:17.219Z,13.75
2018-09-09T01:25:20.911Z,12.25
2018-09-09T01:30:24.597Z,12.20
2018-09-09T01:35:28.277Z,12.25
2018-09-09T01:40:31.962Z,12.20
2018-09-09T01:45:35.663Z,12.40
2018-09-09T01:50:39.374Z,12.25
2018-09-09T01:55:43.074Z,13.00
2018-09-09T02:00:46.774Z,11.00
2018-09-09T02:05:51.364Z,11.25
2018-09-09T02:10:59.517Z,11.50
2018-09-09T02:16:03.215Z,12.00
2018-09-09T02:21:06.956Z,10.20
2018-09-09T02:26:10.695Z,13.60
2018-09-09T02:31:14.416Z,11.75
2018-09-09T02:36:19.026Z,13.00
2018-09-09T02:41:22.697Z,12.00
2018-09-09T02:46:26.339Z,11.80
2018-09-09T02:51:30.054Z,12.20
2018-09-09T02:56:33.726Z,12.60
2018-09-09T03:01:37.418Z,10.00
2018-09-09T03:06:41.148Z,12.50
2018-09-09T03:11:45.015Z,12.00
2018-09-09T03:16:48.711Z,12.00
2018-09-09T03:21:52.518Z,11.50
2018-09-09T03:26:56.185Z,12.00
2018-09-09T03:31:59.829Z,13.00
2018-09-09T03:37:03.491Z,12.00
2018-09-09T03:42:07.343Z,11.00
2018-09-09T03:47:11.011Z,12.25
2018-09-09T03:52:14.755Z,12.20
2018-09-09T03:57:19.478Z,10.60
2018-09-09T04:02:23.142Z,12.60
2018-09-09T04:07:27.558Z,11.20
2018-09-09T04:12:31.327Z,11.00
2018-09-09T04:17:35.022Z,11.40
2018-09-09T04:22:38.656Z,9.25
2018-09-09T04:27:42.274Z,11.50
2018-09-09T04:32:45.976Z,11.20
2018-09-09T04:37:49.616Z,10.75
2018-09-09T04:42:53.358Z,12.25
2018-09-09T04:47:57.046Z,10.75
2018-09-09T04:53:00.802Z,10.50
2018-09-09T04:58:04.448Z,10.75
2018-09-09T05:03:08.061Z,10.00
2018-09-09T05:08:12.472Z,11.00
2018-09-09T05:13:16.157Z,10.20
2018-09-09T05:18:19.781Z,12.00
2018-09-09T05:23:23.394Z,11.50
2018-09-09T05:28:27.042Z,9.75
2018-09-09T05:33:30.855Z,10.25
2018-09-09T05:38:34.529Z,9.75
2018-09-09T05:43:38.149Z,10.00
2018-09-09T05:48:41.804Z,9.80
2018-09-09T05:53:45.455Z,10.00
2018-09-09T05:58:50.100Z,9.50
2018-09-09T06:03:53.843Z,9.60
2018-09-09T06:08:58.262Z,8.75
2018-09-09T06:14:01.947Z,9.80
2018-09-09T06:19:05.959Z,10.00
2018-09-09T06:24:09.602Z,9.00
2018-09-09T06:29:13.241Z,9.50
2018-09-09T06:34:16.937Z,9.25
2018-09-09T06:39:20.663Z,9.00
2018-09-09T06:44:24.239Z,9.00
2018-09-09T06:49:27.855Z,8.50
2018-09-09T06:54:31.554Z,9.00
2018-09-09T06:59:35.186Z,8.00
2018-09-09T07:04:38.867Z,8.00
2018-09-09T07:09:42.545Z,8.00
2018-09-09T07:14:46.230Z,8.00
2018-09-09T07:19:49.874Z,8.00
2018-09-09T07:24:53.527Z,8.00
2018-09-09T07:29:57.146Z,7.75
2018-09-09T07:35:00.914Z,8.00
2018-09-09T07:40:08.624Z,6.50
2018-09-09T07:45:12.711Z,7.40
2018-09-09T07:50:16.778Z,8.00
2018-09-09T07:55:20.589Z,9.00
2018-09-09T08:00:25.602Z,7.00
2018-09-09T08:05:29.993Z,8.00
2018-09-09T08:10:33.879Z,7.00
2018-09-09T08:15:38.459Z,7.75
2018-09-09T08:20:43.499Z,7.00
2018-09-09T08:25:51.158Z,7.20
2018-09-09T08:30:56.074Z,7.20
2018-09-09T08:36:00.223Z,7.20
2018-09-09T08:41:04.907Z,4.00
2018-09-09T08:46:08.888Z,5.50
2018-09-09T08:51:12.848Z,6.00
2018-09-09T08:56:17.301Z,4.00
2018-09-09T09:01:21.044Z,5.80
2018-09-09T09:06:27.244Z,3.60
2018-09-09T09:11:32.326Z,5.40
2018-09-09T09:16:36.957Z,6.00
2018-09-09T09:21:41.848Z,3.75
2018-09-09T09:26:45.619Z,3.25
2018-09-09T09:31:49.531Z,4.00
2018-09-09T09:36:53.173Z,3.00
2018-09-09T09:41:58.068Z,3.00
2018-09-09T09:47:01.851Z,3.00
2018-09-09T09:52:05.503Z,4.00
2018-09-09T09:57:09.816Z,3.00
2018-09-09T10:02:13.548Z,3.00
2018-09-09T10:07:17.352Z,2.00
2018-09-09T10:12:20.995Z,2.00
2018-09-09T10:17:24.619Z,2.00
2018-09-09T10:22:28.362Z,3.00
2018-09-09T10:27:31.994Z,1.75
2018-09-09T10:32:35.650Z,2.00
2018-09-09T10:37:39.276Z,2.00
2018-09-09T10:42:42.932Z,1.75
2018-09-09T10:47:46.616Z,2.00
2018-09-09T10:52:50.368Z,2.00
2018-09-09T10:57:53.993Z,2.20
2018-09-09T11:02:57.603Z,1.75
2018-09-09T11:08:01.198Z,1.75
2018-09-09T11:13:04.916Z,2.00
2018-09-09T11:18:09.144Z,3.00
2018-09-09T11:23:12.753Z,2.00
2018-09-09T11:28:16.313Z,2.00
2018-09-09T11:33:20.131Z,2.00
2018-09-09T11:38:23.757Z,2.00
2018-09-09T11:43:27.397Z,2.00
2018-09-09T11:48:31.261Z,2.00
2018-09-09T11:53:35.055Z,1.25
2018-09-09T11:58:38.795Z,2.00
2018-09-09T12:03:42.520Z,2.00
2018-09-09T12:08:46.163Z,1.00
2018-09-09T12:13:49.866Z,1.00
2018-09-09T12:18:53.473Z,1.25
2018-09-09T12:23:57.102Z,1.00
2018-09-09T12:29:00.838Z,1.25
2018-09-09T12:34:10.512Z,1.00
2018-09-09T12:39:13.985Z,0.50
2018-09-09T12:44:22.914Z,1.20
2018-09-09T12:49:27.188Z,1.00
2018-09-09T12:54:30.972Z,1.00
2018-09-09T12:59:35.352Z,1.00
2018-09-09T13:04:38.905Z,1.60
2018-09-09T13:09:43.296Z,1.00
2018-09-09T13:14:47.123Z,1.00
2018-09-09T13:19:50.615Z,1.00
2018-09-09T13:58:37.699Z,3.00
2018-09-09T14:03:41.308Z,3.00
2018-09-09T14:08:44.866Z,4.00
2018-09-09T14:13:48.312Z,4.00
2018-09-09T14:18:51.784Z,5.00
2018-09-09T14:23:55.234Z,5.00
2018-09-09T14:28:58.697Z,6.00
2018-09-09T14:34:02.182Z,7.75
2018-09-09T14:39:07.945Z,10.80
2018-09-09T14:44:11.407Z,11.00
2018-09-09T14:49:14.858Z,12.00
2018-09-09T14:54:18.319Z,14.50
2018-09-09T14:59:21.800Z,11.40
2018-09-09T15:04:25.267Z,13.25
2018-09-09T15:09:28.726Z,15.20
2018-09-09T15:14:32.200Z,14.00
2018-09-09T15:19:35.682Z,14.60
2018-09-09T15:24:39.126Z,13.25
2018-09-09T15:29:42.567Z,12.00
2018-09-09T15:34:46.002Z,12.75
2018-09-09T15:39:49.460Z,14.00
2018-09-09T15:44:52.907Z,14.80
2018-09-09T15:49:56.351Z,13.00
2018-09-09T15:54:59.796Z,14.25
2018-09-09T16:00:03.322Z,13.75
2018-09-09T16:05:07.365Z,14.60
2018-09-09T16:10:10.820Z,14.80
2018-09-09T16:15:14.319Z,14.80
2018-09-09T16:20:17.810Z,15.50
2018-09-09T16:25:21.289Z,16.00
2018-09-09T16:30:24.755Z,8.75
2018-09-09T16:35:28.819Z,10.60
2018-09-09T16:40:32.307Z,15.80
2018-09-09T16:45:35.980Z,19.00
2018-09-09T16:50:39.416Z,18.60
2018-09-09T16:55:42.898Z,22.00
2018-09-09T17:00:46.343Z,24.40
2018-09-09T17:05:49.931Z,24.50
2018-09-09T17:10:53.483Z,24.00
2018-09-09T17:15:56.947Z,23.75
2018-09-09T17:21:00.456Z,24.00
2018-09-09T17:26:04.150Z,22.50
2018-09-09T17:31:07.695Z,15.40
2018-09-09T17:36:11.155Z,2.00
2018-09-09T17:41:14.656Z,6.20
2018-09-09T17:46:18.354Z,17.75
2018-09-09T17:51:21.810Z,21.40
2018-09-09T17:56:25.267Z,22.00
2018-09-09T18:01:28.784Z,23.00
2018-09-09T18:06:32.296Z,22.00
2018-09-09T18:11:35.904Z,21.80
2018-09-09T18:16:39.399Z,21.80
2018-09-09T18:21:42.962Z,19.50
2018-09-09T18:26:46.429Z,19.20
2018-09-09T18:31:49.889Z,19.00
2018-09-09T18:36:53.363Z,18.00
2018-09-09T18:41:56.820Z,18.50
2018-09-09T18:47:00.302Z,17.00
2018-09-09T18:52:03.751Z,16.00
2018-09-09T18:57:07.195Z,15.25
2018-09-09T19:02:10.664Z,16.00
2018-09-09T19:07:14.135Z,16.00
2018-09-09T19:12:17.659Z,16.00
2018-09-09T19:17:21.156Z,14.75
2018-09-09T19:22:24.633Z,13.50
2018-09-09T19:27:28.248Z,14.25
2018-09-09T19:32:31.711Z,13.00
2018-09-09T19:37:35.154Z,12.25
2018-09-09T19:42:38.861Z,13.25
2018-09-09T19:47:42.328Z,11.60
2018-09-09T19:52:45.775Z,12.00
2018-09-09T19:57:49.724Z,9.50
2018-09-09T20:02:53.173Z,10.00
2018-09-09T20:07:56.632Z,9.00
2018-09-09T20:13:00.195Z,8.75
2018-09-09T20:18:03.679Z,9.00
2018-09-09T20:23:07.134Z,8.00
2018-09-09T20:28:10.666Z,9.00
2018-09-09T20:33:14.153Z,8.00
2018-09-09T20:38:17.630Z,8.40
2018-09-09T20:43:21.118Z,7.00
2018-09-09T20:48:24.584Z,7.00
2018-09-09T20:53:28.019Z,8.00
2018-09-09T20:58:31.622Z,6.50
2018-09-09T21:03:35.131Z,7.50
2018-09-09T21:08:38.568Z,6.00
2018-09-09T21:13:42.003Z,6.00
2018-09-09T21:18:45.515Z,6.40
2018-09-09T21:23:48.988Z,5.50
2018-09-09T21:28:52.454Z,6.00
2018-09-09T21:33:55.940Z,6.50
2018-09-09T21:38:59.372Z,4.25
2018-09-09T21:44:02.976Z,5.75
2018-09-09T21:49:06.858Z,5.40
2018-09-09T21:54:10.339Z,5.00
2018-09-09T21:59:13.846Z,5.00
2018-09-09T22:04:17.315Z,6.00
2018-09-09T22:09:20.781Z,4.75
2018-09-09T22:14:24.228Z,5.00
2018-09-09T22:19:27.839Z,5.00
2018-09-09T22:24:31.351Z,4.40
2018-09-09T22:29:34.858Z,5.00
2018-09-09T22:34:38.398Z,5.00
2018-09-09T22:39:41.880Z,5.40
2018-09-09T22:44:45.355Z,5.00
2018-09-09T22:49:48.819Z,5.00
2018-09-09T22:54:52.287Z,5.00
2018-09-09T22:59:55.848Z,4.00
2018-09-09T23:04:59.303Z,4.50
2018-09-09T23:10:02.816Z,4.20
2018-09-09T23:15:06.648Z,4.40
2018-09-09T23:20:10.106Z,4.60
2018-09-09T23:25:13.579Z,4.00
2018-09-09T23:30:17.099Z,4.20
2018-09-09T23:35:20.644Z,4.00
2018-09-09T23:40:24.124Z,4.00
2018-09-09T23:45:27.632Z,4.00
2018-09-09T23:50:31.255Z,4.20
2018-09-09T23:55:34.736Z,4.25
